createdAt,value
2024-02-07T00:00:02.433Z,23.05
2024-02-07T00:01:02.542Z,23.02
2024-02-07T00:02:02.654Z,23.11
2024-02-07T00:03:03.002Z,23.10
2024-02-07T00:04:02.691Z,23.03
2024-02-07T00:05:02.772Z,23.09
2024-02-07T00:06:02.813Z,23.05
2024-02-07T00:07:02.812Z,23.04
2024-02-07T00:08:02.924Z,23.04
2024-02-07T00:09:02.925Z,23.07
2024-02-07T00:10:02.982Z,23.01
2024-02-07T00:11:03.016Z,23.07
2024-02-07T00:12:03.068Z,23.04
2024-02-07T00:13:03.129Z,23.01
2024-02-07T00:14:03.203Z,23.01
2024-02-07T00:15:03.239Z,23.01
2024-02-07T00:16:03.325Z,22.99
2024-02-07T00:17:03.365Z,23.03
2024-02-07T00:18:03.484Z,22.99
2024-02-07T00:19:03.531Z,23.01
2024-02-07T00:20:03.656Z,23.01
2024-02-07T00:21:03.544Z,22.98
2024-02-07T00:22:03.605Z,22.98
2024-02-07T00:23:04.062Z,23.01
2024-02-07T00:24:03.732Z,22.98
2024-02-07T00:25:03.802Z,23.04
2024-02-07T00:26:03.832Z,22.98
2024-02-07T00:27:03.920Z,22.98
2024-02-07T00:28:03.934Z,22.98
2024-02-07T00:29:03.970Z,22.97
2024-02-07T00:30:04.087Z,22.97
2024-02-07T00:31:04.136Z,22.98
2024-02-07T00:32:04.181Z,22.99
2024-02-07T00:33:04.575Z,22.89
2024-02-07T00:34:04.264Z,22.99
2024-02-07T00:35:04.412Z,22.95
2024-02-07T00:36:04.424Z,22.94
2024-02-07T00:37:04.444Z,23.01
2024-02-07T00:38:04.499Z,22.95
2024-02-07T00:39:04.596Z,22.97
2024-02-07T00:40:04.607Z,22.94
2024-02-07T00:41:04.721Z,22.94
2024-02-07T00:42:04.712Z,22.89
2024-02-07T00:43:05.043Z,22.91
2024-02-07T00:44:04.843Z,22.92
2024-02-07T00:45:04.899Z,22.94
2024-02-07T00:46:04.970Z,22.89
2024-02-07T00:47:05.015Z,22.88
2024-02-07T00:48:05.168Z,22.91
2024-02-07T00:49:05.226Z,22.88
2024-02-07T00:50:05.264Z,22.94
2024-02-07T00:51:05.328Z,22.91
2024-02-07T00:52:06.119Z,22.85
2024-02-07T00:53:05.407Z,22.88
2024-02-07T00:54:05.413Z,22.91
2024-02-07T00:55:05.470Z,22.89
2024-02-07T00:56:05.533Z,22.91
2024-02-07T00:57:05.572Z,22.87
2024-02-07T00:58:06.106Z,22.91
2024-02-07T00:59:05.690Z,22.89
2024-02-07T01:00:05.767Z,22.92
2024-02-07T01:01:05.873Z,22.88
2024-02-07T01:02:05.908Z,22.87
2024-02-07T01:03:05.931Z,22.87
2024-02-07T01:04:06.082Z,22.87
2024-02-07T01:05:06.246Z,22.88
2024-02-07T01:06:06.117Z,22.87
2024-02-07T01:07:06.248Z,22.89
2024-02-07T01:08:06.176Z,22.91
2024-02-07T01:09:06.232Z,22.85
2024-02-07T01:10:06.479Z,22.87
2024-02-07T01:11:06.385Z,22.83
2024-02-07T01:12:06.562Z,22.85
2024-02-07T01:13:06.453Z,22.81
2024-02-07T01:14:06.482Z,22.75
2024-02-07T01:15:06.550Z,22.83
2024-02-07T01:16:06.719Z,22.81
2024-02-07T01:17:07.055Z,22.77
2024-02-07T01:18:06.842Z,22.82
2024-02-07T01:19:06.936Z,22.83
2024-02-07T01:20:06.991Z,22.80
2024-02-07T01:21:06.944Z,22.81
2024-02-07T01:22:07.011Z,22.77
2024-02-07T01:23:07.061Z,22.74
2024-02-07T01:24:07.057Z,22.76
2024-02-07T01:25:07.193Z,22.82
2024-02-07T01:26:07.200Z,22.79
2024-02-07T01:27:07.597Z,22.79
2024-02-07T01:28:07.342Z,22.81
2024-02-07T01:29:07.351Z,22.76
2024-02-07T01:30:07.422Z,22.78
2024-02-07T01:31:07.525Z,22.70
2024-02-07T01:32:07.527Z,22.73
2024-02-07T01:33:08.302Z,22.77
2024-02-07T01:34:07.722Z,22.73
2024-02-07T01:35:07.941Z,22.74
2024-02-07T01:36:08.584Z,22.71
2024-02-07T01:37:07.884Z,22.73
2024-02-07T01:38:07.875Z,22.72
2024-02-07T01:39:07.920Z,22.74
2024-02-07T01:40:08.011Z,22.77
2024-02-07T01:41:08.042Z,22.76
2024-02-07T01:42:08.113Z,22.73
2024-02-07T01:43:08.197Z,22.73
2024-02-07T01:44:08.226Z,22.69
2024-02-07T01:45:08.285Z,22.70
2024-02-07T01:46:08.413Z,22.73
2024-02-07T01:47:08.554Z,22.73
2024-02-07T01:48:09.626Z,22.70
2024-02-07T01:49:08.676Z,22.74
2024-02-07T01:50:08.600Z,22.69
2024-02-07T01:51:08.618Z,22.67
2024-02-07T01:52:08.719Z,22.64
2024-02-07T01:53:08.771Z,22.67
2024-02-07T01:54:08.819Z,22.69
2024-02-07T01:55:08.899Z,22.70
2024-02-07T01:56:08.936Z,22.67
2024-02-07T01:57:09.052Z,22.67
2024-02-07T01:58:09.068Z,22.69
2024-02-07T01:59:09.045Z,22.59
2024-02-07T02:00:09.133Z,22.64
2024-02-07T02:01:09.279Z,22.63
2024-02-07T02:02:09.519Z,22.61
2024-02-07T02:03:09.366Z,22.63
2024-02-07T02:04:09.374Z,22.61
2024-02-07T02:05:09.431Z,22.64
2024-02-07T02:06:09.462Z,22.66
2024-02-07T02:07:09.617Z,22.61
2024-02-07T02:08:09.631Z,22.59
2024-02-07T02:09:09.633Z,22.58
2024-02-07T02:10:12.062Z,22.59
2024-02-07T02:11:09.756Z,22.61
2024-02-07T02:12:09.688Z,22.64
2024-02-07T02:13:09.771Z,22.60
2024-02-07T02:14:09.709Z,22.55
2024-02-07T02:15:09.724Z,22.58
2024-02-07T02:16:09.750Z,22.54
2024-02-07T02:17:10.096Z,22.57
2024-02-07T02:18:09.803Z,22.55
2024-02-07T02:19:09.787Z,22.60
2024-02-07T02:20:09.833Z,22.61
2024-02-07T02:21:09.715Z,22.55
2024-02-07T02:22:09.772Z,22.60
2024-02-07T02:23:09.730Z,22.55
2024-02-07T02:24:09.853Z,22.49
2024-02-07T02:25:09.766Z,22.53
2024-02-07T02:26:09.688Z,22.54
2024-02-07T02:27:09.722Z,22.51
2024-02-07T02:28:09.769Z,22.51
2024-02-07T02:29:09.730Z,22.48
2024-02-07T02:30:09.729Z,22.54
2024-02-07T02:31:09.765Z,22.48
2024-02-07T02:32:09.739Z,22.49
2024-02-07T02:33:09.807Z,22.51
2024-02-07T02:34:09.816Z,22.45
2024-02-07T02:35:09.856Z,22.51
2024-02-07T02:36:09.782Z,22.48
2024-02-07T02:37:09.950Z,22.48
2024-02-07T02:38:09.954Z,22.51
2024-02-07T02:39:09.998Z,22.49
2024-02-07T02:40:10.129Z,22.45
2024-02-07T02:41:10.249Z,22.46
2024-02-07T02:42:10.178Z,22.49
2024-02-07T02:43:10.262Z,22.51
2024-02-07T02:44:10.372Z,22.51
2024-02-07T02:45:10.359Z,22.45
2024-02-07T02:46:10.530Z,22.39
2024-02-07T02:47:10.412Z,22.48
2024-02-07T02:48:13.841Z,22.46
2024-02-07T02:49:10.532Z,22.48
2024-02-07T02:50:10.510Z,22.48
2024-02-07T02:51:10.496Z,22.43
2024-02-07T02:52:10.505Z,22.41
2024-02-07T02:53:10.503Z,22.42
2024-02-07T02:54:10.514Z,22.46
2024-02-07T02:55:10.499Z,22.41
2024-02-07T02:56:10.586Z,22.48
2024-02-07T02:57:10.493Z,22.36
2024-02-07T02:58:10.501Z,22.36
2024-02-07T02:59:10.561Z,22.32
2024-02-07T03:00:10.512Z,22.42
2024-02-07T03:01:10.560Z,22.39
2024-02-07T03:02:10.808Z,22.38
2024-02-07T03:03:10.528Z,22.38
2024-02-07T03:04:10.593Z,22.36
2024-02-07T03:05:10.575Z,22.41
2024-02-07T03:06:10.558Z,22.43
2024-02-07T03:07:10.573Z,22.41
2024-02-07T03:08:10.609Z,22.36
2024-02-07T03:09:10.742Z,22.33
2024-02-07T03:10:10.576Z,22.33
2024-02-07T03:11:10.546Z,22.38
2024-02-07T03:12:10.510Z,22.29
2024-02-07T03:13:10.636Z,22.33
2024-02-07T03:14:10.500Z,22.29
2024-02-07T03:15:10.535Z,22.35
2024-02-07T03:16:10.541Z,22.41
2024-02-07T03:17:10.528Z,22.35
2024-02-07T03:18:10.612Z,22.41
2024-02-07T03:19:10.729Z,22.29
2024-02-07T03:20:10.715Z,22.32
2024-02-07T03:21:10.771Z,22.29
2024-02-07T03:22:10.812Z,22.33
2024-02-07T03:23:10.819Z,22.35
2024-02-07T03:24:10.842Z,22.35
2024-02-07T03:25:10.930Z,22.38
2024-02-07T03:26:11.304Z,22.31
2024-02-07T03:27:11.057Z,22.27
2024-02-07T03:28:11.135Z,22.30
2024-02-07T03:29:11.117Z,22.32
2024-02-07T03:30:11.152Z,22.27
2024-02-07T03:31:11.213Z,22.29
2024-02-07T03:32:11.294Z,22.34
2024-02-07T03:33:11.352Z,22.32
2024-02-07T03:34:11.614Z,22.24
2024-02-07T03:35:11.504Z,22.23
2024-02-07T03:36:11.468Z,22.26
2024-02-07T03:37:11.495Z,22.29
2024-02-07T03:38:11.532Z,22.20
2024-02-07T03:39:11.601Z,22.30
2024-02-07T03:40:11.741Z,22.26
2024-02-07T03:41:11.709Z,22.26
2024-02-07T03:42:11.758Z,22.29
2024-02-07T03:43:11.851Z,22.22
2024-02-07T03:44:11.876Z,22.30
2024-02-07T03:45:11.904Z,22.22
2024-02-07T03:46:15.720Z,22.20
2024-02-07T03:47:12.063Z,22.24
2024-02-07T03:48:11.991Z,22.20
2024-02-07T03:49:12.072Z,22.23
2024-02-07T03:50:12.235Z,22.24
2024-02-07T03:51:11.982Z,22.27
2024-02-07T03:52:12.017Z,22.22
2024-02-07T03:53:11.994Z,22.18
2024-02-07T03:54:12.006Z,22.17
2024-02-07T03:55:12.053Z,22.19
2024-02-07T03:56:11.992Z,22.17
2024-02-07T03:57:11.963Z,22.19
2024-02-07T03:58:12.031Z,22.20
2024-02-07T03:59:11.987Z,22.18
2024-02-07T04:00:11.997Z,22.20
2024-02-07T04:01:12.218Z,22.17
2024-02-07T04:02:12.080Z,22.16
2024-02-07T04:03:12.029Z,22.16
2024-02-07T04:04:12.060Z,22.16
2024-02-07T04:05:12.062Z,22.18
2024-02-07T04:06:12.015Z,22.13
2024-02-07T04:07:12.189Z,22.13
2024-02-07T04:08:12.346Z,22.11
2024-02-07T04:09:12.347Z,22.14
2024-02-07T04:10:12.095Z,22.08
2024-02-07T04:11:12.077Z,22.08
2024-02-07T04:12:12.131Z,22.13
2024-02-07T04:13:12.463Z,22.14
2024-02-07T04:14:12.258Z,22.11
2024-02-07T04:15:12.284Z,22.16
2024-02-07T04:16:12.395Z,22.08
2024-02-07T04:17:12.429Z,22.11
2024-02-07T04:18:12.526Z,22.02
2024-02-07T04:19:12.677Z,22.10
2024-02-07T04:20:12.652Z,22.10
2024-02-07T04:21:12.622Z,22.06
2024-02-07T04:22:12.664Z,22.11
2024-02-07T04:23:12.739Z,22.16
2024-02-07T04:24:12.794Z,22.07
2024-02-07T04:25:12.918Z,22.07
2024-02-07T04:26:12.847Z,22.10
2024-02-07T04:27:12.902Z,22.10
2024-02-07T04:28:13.005Z,22.08
2024-02-07T04:29:13.030Z,22.04
2024-02-07T04:30:13.058Z,22.08
2024-02-07T04:31:20.484Z,22.07
2024-02-07T04:32:20.418Z,22.07
2024-02-07T04:33:20.603Z,22.07
2024-02-07T04:34:20.485Z,22.10
2024-02-07T04:35:20.441Z,22.07
2024-02-07T04:36:20.444Z,22.08
2024-02-07T04:37:20.522Z,22.02
2024-02-07T04:38:20.425Z,22.04
2024-02-07T04:39:20.437Z,22.07
2024-02-07T04:40:20.494Z,22.04
2024-02-07T04:41:20.458Z,22.05
2024-02-07T04:42:20.436Z,22.10
2024-02-07T04:43:20.468Z,22.04
2024-02-07T04:44:20.457Z,22.00
2024-02-07T04:45:20.484Z,22.02
2024-02-07T04:46:20.538Z,22.06
2024-02-07T04:47:20.462Z,22.01
2024-02-07T04:48:20.468Z,21.98
2024-02-07T04:49:20.522Z,22.01
2024-02-07T04:50:20.490Z,22.00
2024-02-07T04:51:20.448Z,22.06
2024-02-07T04:52:20.474Z,21.98
2024-02-07T04:53:20.450Z,22.01
2024-02-07T04:54:20.454Z,21.97
2024-02-07T04:55:20.473Z,22.00
2024-02-07T04:56:20.483Z,21.97
2024-02-07T04:57:20.460Z,22.01
2024-02-07T04:58:20.519Z,21.98
2024-02-07T04:59:20.446Z,21.95
2024-02-07T05:00:20.445Z,21.92
2024-02-07T05:01:20.651Z,21.97
2024-02-07T05:02:20.584Z,21.92
2024-02-07T05:03:20.673Z,21.94
2024-02-07T05:04:21.427Z,21.92
2024-02-07T05:05:20.728Z,21.94
2024-02-07T05:06:20.773Z,21.98
2024-02-07T05:07:20.869Z,21.89
2024-02-07T05:08:20.942Z,21.88
2024-02-07T05:09:20.918Z,21.92
2024-02-07T05:10:20.992Z,21.94
2024-02-07T05:11:21.057Z,21.91
2024-02-07T05:12:21.100Z,21.93
2024-02-07T05:13:21.187Z,21.92
2024-02-07T05:14:21.206Z,21.92
2024-02-07T05:15:21.241Z,21.92
2024-02-07T05:16:21.302Z,21.92
2024-02-07T05:17:21.336Z,21.94
2024-02-07T05:18:21.485Z,21.91
2024-02-07T05:19:21.696Z,21.92
2024-02-07T05:20:21.506Z,22.01
2024-02-07T05:21:21.516Z,21.88
2024-02-07T05:22:21.587Z,21.88
2024-02-07T05:23:21.936Z,21.89
2024-02-07T05:24:21.677Z,21.85
2024-02-07T05:25:21.828Z,21.89
2024-02-07T05:26:21.800Z,21.92
2024-02-07T05:27:21.853Z,21.86
2024-02-07T05:28:21.915Z,21.89
2024-02-07T05:29:21.933Z,21.91
2024-02-07T05:30:21.981Z,21.88
2024-02-07T05:31:22.099Z,21.86
2024-02-07T05:32:22.300Z,21.86
2024-02-07T05:33:22.531Z,21.88
2024-02-07T05:34:22.471Z,21.85
2024-02-07T05:35:22.417Z,21.92
2024-02-07T05:36:22.298Z,21.89
2024-02-07T05:37:22.434Z,21.88
2024-02-07T05:38:22.465Z,21.85
2024-02-07T05:39:22.455Z,21.83
2024-02-07T05:40:22.553Z,21.85
2024-02-07T05:41:22.592Z,21.85
2024-02-07T05:42:22.624Z,21.88
2024-02-07T05:43:22.719Z,21.89
2024-02-07T05:44:22.741Z,21.83
2024-02-07T05:45:22.831Z,21.89
2024-02-07T05:46:22.899Z,21.83
2024-02-07T05:47:22.960Z,21.86
2024-02-07T05:48:23.029Z,21.85
2024-02-07T05:49:23.143Z,21.82
2024-02-07T05:50:23.107Z,21.79
2024-02-07T05:51:23.137Z,21.86
2024-02-07T05:52:23.230Z,21.80
2024-02-07T05:53:23.455Z,21.80
2024-02-07T05:54:23.313Z,21.83
2024-02-07T05:55:23.442Z,21.82
2024-02-07T05:56:23.436Z,21.86
2024-02-07T05:57:23.490Z,21.85
2024-02-07T05:58:23.569Z,21.75
2024-02-07T05:59:23.698Z,21.82
2024-02-07T06:00:23.665Z,21.83
2024-02-07T06:01:23.859Z,21.88
2024-02-07T06:02:23.839Z,21.95
2024-02-07T06:03:23.958Z,22.13
2024-02-07T06:04:23.967Z,22.39
2024-02-07T06:05:23.985Z,22.39
2024-02-07T06:06:24.083Z,22.57
2024-02-07T06:07:24.178Z,22.64
2024-02-07T06:08:24.127Z,23.32
2024-02-07T06:09:24.164Z,23.06
2024-02-07T06:10:24.309Z,23.35
2024-02-07T06:11:24.248Z,23.30
2024-02-07T06:12:24.344Z,23.19
2024-02-07T06:13:24.477Z,23.20
2024-02-07T06:14:24.410Z,23.19
2024-02-07T06:15:24.482Z,23.19
2024-02-07T06:16:24.611Z,23.31
2024-02-07T06:17:24.643Z,23.22
2024-02-07T06:18:24.627Z,23.22
2024-02-07T06:19:24.949Z,23.19
2024-02-07T06:20:25.096Z,23.13
2024-02-07T06:21:24.820Z,23.13
2024-02-07T06:22:24.967Z,23.11
2024-02-07T06:23:24.895Z,23.13
2024-02-07T06:24:24.946Z,23.06
2024-02-07T06:25:25.020Z,23.07
2024-02-07T06:26:25.046Z,23.01
2024-02-07T06:27:25.102Z,23.03
2024-02-07T06:28:25.615Z,22.95
2024-02-07T06:29:25.190Z,23.01
2024-02-07T06:30:25.282Z,22.94
2024-02-07T06:31:25.316Z,22.94
2024-02-07T06:32:25.353Z,22.95
2024-02-07T06:33:25.441Z,22.97
2024-02-07T06:34:25.689Z,23.00
2024-02-07T06:35:25.580Z,22.95
2024-02-07T06:36:25.571Z,22.94
2024-02-07T06:37:25.611Z,22.89
2024-02-07T06:38:25.633Z,22.92
2024-02-07T06:39:25.701Z,22.89
2024-02-07T06:40:25.783Z,22.87
2024-02-07T06:41:25.811Z,22.85
2024-02-07T06:42:25.811Z,22.88
2024-02-07T06:43:27.079Z,22.85
2024-02-07T06:44:25.930Z,22.85
2024-02-07T06:45:26.000Z,22.88
2024-02-07T06:46:26.078Z,22.91
2024-02-07T06:47:26.056Z,22.92
2024-02-07T06:48:26.490Z,22.89
2024-02-07T06:49:26.302Z,23.09
2024-02-07T06:50:26.286Z,23.35
2024-02-07T06:51:26.242Z,23.21
2024-02-07T06:52:26.310Z,23.15
2024-02-07T06:53:26.317Z,23.16
2024-02-07T06:54:26.358Z,23.19
2024-02-07T06:55:26.435Z,23.19
2024-02-07T06:56:26.486Z,23.18
2024-02-07T06:57:26.532Z,23.18
2024-02-07T06:58:26.611Z,23.12
2024-02-07T06:59:26.603Z,23.17
2024-02-07T07:00:26.620Z,23.18
2024-02-07T07:01:26.689Z,23.09
2024-02-07T07:02:26.677Z,23.06
2024-02-07T07:03:27.019Z,22.98
2024-02-07T07:04:26.834Z,22.99
2024-02-07T07:05:26.823Z,22.92
2024-02-07T07:06:26.892Z,22.94
2024-02-07T07:07:26.903Z,22.93
2024-02-07T07:08:26.972Z,22.96
2024-02-07T07:09:27.026Z,22.89
2024-02-07T07:10:27.068Z,22.90
2024-02-07T07:11:27.119Z,22.89
2024-02-07T07:12:27.102Z,22.87
2024-02-07T07:13:27.498Z,22.92
2024-02-07T07:14:27.222Z,22.90
2024-02-07T07:15:33.260Z,22.77
2024-02-07T07:16:28.336Z,22.82
2024-02-07T07:17:27.301Z,22.83
2024-02-07T07:18:27.518Z,22.79
2024-02-07T07:19:27.364Z,22.78
2024-02-07T07:20:27.243Z,22.75
2024-02-07T07:21:27.239Z,22.72
2024-02-07T07:22:27.308Z,22.74
2024-02-07T07:23:27.288Z,22.71
2024-02-07T07:24:27.273Z,22.69
2024-02-07T07:25:27.261Z,22.67
2024-02-07T07:26:27.302Z,22.69
2024-02-07T07:27:27.251Z,22.63
2024-02-07T07:28:27.511Z,22.65
2024-02-07T07:29:27.342Z,22.71
2024-02-07T07:30:27.388Z,22.68
2024-02-07T07:31:28.421Z,22.63
2024-02-07T07:32:27.538Z,22.67
2024-02-07T07:33:27.513Z,22.60
2024-02-07T07:34:27.456Z,22.61
2024-02-07T07:35:27.609Z,22.60
2024-02-07T07:36:27.375Z,22.59
2024-02-07T07:37:27.470Z,22.57
2024-02-07T07:38:27.413Z,22.53
2024-02-07T07:39:27.406Z,22.50
2024-02-07T07:40:27.488Z,22.54
2024-02-07T07:41:27.446Z,22.53
2024-02-07T07:42:27.430Z,22.53
2024-02-07T07:43:27.489Z,22.48
2024-02-07T07:44:27.520Z,22.44
2024-02-07T07:45:27.585Z,22.47
2024-02-07T07:46:27.649Z,22.49
2024-02-07T07:47:27.725Z,22.49
2024-02-07T07:48:27.815Z,22.47
2024-02-07T07:49:28.005Z,22.42
2024-02-07T07:50:27.942Z,22.44
2024-02-07T07:51:27.927Z,22.44
2024-02-07T07:52:28.036Z,22.41
2024-02-07T07:53:28.043Z,22.41
2024-02-07T07:54:28.129Z,22.51
2024-02-07T07:55:28.172Z,22.75
2024-02-07T07:56:28.171Z,23.08
2024-02-07T07:57:28.281Z,23.27
2024-02-07T07:58:34.105Z,23.50
2024-02-07T07:59:29.384Z,23.70
2024-02-07T08:00:28.238Z,23.82
2024-02-07T08:01:28.422Z,24.04
2024-02-07T08:02:28.371Z,24.46
2024-02-07T08:03:28.253Z,24.53
2024-02-07T08:04:28.344Z,24.69
2024-02-07T08:05:28.298Z,24.80
2024-02-07T08:06:28.300Z,25.02
2024-02-07T08:07:28.320Z,25.08
2024-02-07T08:08:28.342Z,25.26
2024-02-07T08:09:28.262Z,25.31
2024-02-07T08:10:28.290Z,25.50
2024-02-07T08:11:28.280Z,25.58
2024-02-07T08:12:28.284Z,25.76
2024-02-07T08:13:28.339Z,25.90
2024-02-07T08:14:28.252Z,25.85
2024-02-07T08:15:28.367Z,25.91
2024-02-07T08:16:28.425Z,26.14
2024-02-07T08:17:28.437Z,26.14
2024-02-07T08:18:28.504Z,26.20
2024-02-07T08:19:28.610Z,26.45
2024-02-07T08:20:28.709Z,26.45
2024-02-07T08:21:28.669Z,26.44
2024-02-07T08:22:28.792Z,26.61
2024-02-07T08:23:28.759Z,26.63
2024-02-07T08:24:28.779Z,26.77
2024-02-07T08:25:28.876Z,26.84
2024-02-07T08:26:28.897Z,27.03
2024-02-07T08:27:28.937Z,27.01
2024-02-07T08:28:28.963Z,27.02
2024-02-07T08:29:28.989Z,27.28
2024-02-07T08:30:29.023Z,27.34
2024-02-07T08:31:29.133Z,27.38
2024-02-07T08:32:29.128Z,27.50
2024-02-07T08:33:29.236Z,27.63
2024-02-07T08:34:29.412Z,27.64
2024-02-07T08:35:29.338Z,27.71
2024-02-07T08:36:29.395Z,27.86
2024-02-07T08:37:29.365Z,28.30
2024-02-07T08:38:29.342Z,28.29
2024-02-07T08:39:29.341Z,28.36
2024-02-07T08:40:29.498Z,28.46
2024-02-07T08:41:29.398Z,28.31
2024-02-07T08:42:29.484Z,28.46
2024-02-07T08:43:29.527Z,28.41
2024-02-07T08:44:32.151Z,28.61
2024-02-07T08:45:29.556Z,28.59
2024-02-07T08:46:29.593Z,28.61
2024-02-07T08:47:29.570Z,28.38
2024-02-07T08:48:30.091Z,28.42
2024-02-07T08:49:29.695Z,28.39
2024-02-07T08:50:29.542Z,28.25
2024-02-07T08:51:29.507Z,28.11
2024-02-07T08:52:29.558Z,27.91
2024-02-07T08:53:29.562Z,27.82
2024-02-07T08:54:29.570Z,27.68
2024-02-07T08:55:29.667Z,27.53
2024-02-07T08:56:29.531Z,27.45
2024-02-07T08:57:29.534Z,27.33
2024-02-07T08:58:32.095Z,27.25
2024-02-07T08:59:29.530Z,27.20
2024-02-07T09:00:29.546Z,27.07
2024-02-07T09:01:29.603Z,27.03
2024-02-07T09:02:29.527Z,26.94
2024-02-07T09:03:30.065Z,26.86
2024-02-07T09:04:29.556Z,26.79
2024-02-07T09:05:29.678Z,26.72
2024-02-07T09:06:29.726Z,26.65
2024-02-07T09:07:29.625Z,26.63
2024-02-07T09:08:30.130Z,26.54
2024-02-07T09:09:29.554Z,26.50
2024-02-07T09:10:29.551Z,26.44
2024-02-07T09:11:29.525Z,26.34
2024-02-07T09:12:29.552Z,26.32
2024-02-07T09:13:29.578Z,26.30
2024-02-07T09:14:29.536Z,26.28
2024-02-07T09:15:29.541Z,26.21
2024-02-07T09:16:29.585Z,26.14
2024-02-07T09:17:29.587Z,26.07
2024-02-07T09:18:29.591Z,26.05
2024-02-07T09:19:29.588Z,26.01
2024-02-07T09:20:29.620Z,26.01
2024-02-07T09:21:31.367Z,25.91
2024-02-07T09:22:29.552Z,25.87
2024-02-07T09:23:30.029Z,25.85
2024-02-07T09:24:29.565Z,25.79
2024-02-07T09:25:29.617Z,25.77
2024-02-07T09:26:29.585Z,25.72
2024-02-07T09:27:30.026Z,25.65
2024-02-07T09:28:29.603Z,25.67
2024-02-07T09:29:29.534Z,25.62
2024-02-07T09:30:29.557Z,25.58
2024-02-07T09:31:29.624Z,25.60
2024-02-07T09:32:29.564Z,25.54
2024-02-07T09:33:30.166Z,25.51
2024-02-07T09:34:29.669Z,25.44
2024-02-07T09:35:29.687Z,25.42
2024-02-07T09:36:29.653Z,25.38
2024-02-07T09:37:29.588Z,25.35
2024-02-07T09:38:30.055Z,25.31
2024-02-07T09:39:29.584Z,25.33
2024-02-07T09:40:29.591Z,25.27
2024-02-07T09:41:29.584Z,25.27
2024-02-07T09:42:29.560Z,25.23
2024-02-07T09:43:29.596Z,25.21
2024-02-07T09:44:29.613Z,25.30
2024-02-07T09:45:29.569Z,25.14
2024-02-07T09:46:29.619Z,25.24
2024-02-07T09:47:29.632Z,24.99
2024-02-07T09:48:30.329Z,25.13
2024-02-07T09:49:29.677Z,25.11
2024-02-07T09:50:29.655Z,25.17
2024-02-07T09:51:29.570Z,25.25
2024-02-07T09:52:29.613Z,25.27
2024-02-07T09:53:31.882Z,25.38
2024-02-07T09:54:29.571Z,25.44
2024-02-07T09:55:29.608Z,25.46
2024-02-07T09:56:29.596Z,25.47
2024-02-07T09:57:29.590Z,25.52
2024-02-07T09:58:30.094Z,25.64
2024-02-07T09:59:29.631Z,25.63
2024-02-07T10:00:29.627Z,25.75
2024-02-07T10:01:29.762Z,25.76
2024-02-07T10:02:29.703Z,25.76
2024-02-07T10:03:30.137Z,25.86
2024-02-07T10:04:30.969Z,25.94
2024-02-07T10:05:29.760Z,26.30
2024-02-07T10:06:29.606Z,26.14
2024-02-07T10:07:29.659Z,26.16
2024-02-07T10:08:30.111Z,26.25
2024-02-07T10:09:29.609Z,26.20
2024-02-07T10:10:29.652Z,26.30
2024-02-07T10:11:29.642Z,26.35
2024-02-07T10:12:29.593Z,26.42
2024-02-07T10:13:30.090Z,26.45
2024-02-07T10:14:29.936Z,26.56
2024-02-07T10:15:29.613Z,26.62
2024-02-07T10:16:29.712Z,26.75
2024-02-07T10:17:29.626Z,26.72
2024-02-07T10:18:30.154Z,26.81
2024-02-07T10:19:29.685Z,26.86
2024-02-07T10:20:30.605Z,26.91
2024-02-07T10:21:29.628Z,27.04
2024-02-07T10:22:29.605Z,27.11
2024-02-07T10:23:30.026Z,27.11
2024-02-07T10:24:29.633Z,27.17
2024-02-07T10:25:29.672Z,27.33
2024-02-07T10:26:29.658Z,27.32
2024-02-07T10:27:29.652Z,27.22
2024-02-07T10:28:29.705Z,27.26
2024-02-07T10:29:29.624Z,27.29
2024-02-07T10:30:29.634Z,27.26
2024-02-07T10:31:29.710Z,27.13
2024-02-07T10:32:29.672Z,27.06
2024-02-07T10:33:32.975Z,27.03
2024-02-07T10:34:30.672Z,26.93
2024-02-07T10:35:29.867Z,26.90
2024-02-07T10:36:29.634Z,26.81
2024-02-07T10:37:29.693Z,26.76
2024-02-07T10:38:29.645Z,26.71
2024-02-07T10:39:29.636Z,26.79
2024-02-07T10:40:29.649Z,26.70
2024-02-07T10:41:29.610Z,26.71
2024-02-07T10:42:29.648Z,26.52
2024-02-07T10:43:29.677Z,26.57
2024-02-07T10:44:29.625Z,26.57
2024-02-07T10:45:29.635Z,26.45
2024-02-07T10:46:29.693Z,26.34
2024-02-07T10:47:29.770Z,26.41
2024-02-07T10:48:30.196Z,26.34
2024-02-07T10:49:29.949Z,26.33
2024-02-07T10:50:29.978Z,26.31
2024-02-07T10:51:29.931Z,26.23
2024-02-07T10:52:29.964Z,26.19
2024-02-07T10:53:30.036Z,26.20
2024-02-07T10:54:30.023Z,26.11
2024-02-07T10:55:30.186Z,26.06
2024-02-07T10:56:30.165Z,26.02
2024-02-07T10:57:30.197Z,25.98
2024-02-07T10:58:30.539Z,25.94
2024-02-07T10:59:30.298Z,25.83
2024-02-07T11:00:30.435Z,25.83
2024-02-07T11:01:30.511Z,25.80
2024-02-07T11:02:30.533Z,25.71
2024-02-07T11:03:30.691Z,25.67
2024-02-07T11:04:31.062Z,25.70
2024-02-07T11:05:30.593Z,25.67
2024-02-07T11:06:30.690Z,25.63
2024-02-07T11:07:30.854Z,25.56
2024-02-07T11:08:30.701Z,25.54
2024-02-07T11:09:30.709Z,25.48
2024-02-07T11:10:30.863Z,25.50
2024-02-07T11:11:30.813Z,25.46
2024-02-07T11:12:30.789Z,25.41
2024-02-07T11:13:30.812Z,25.42
2024-02-07T11:14:30.786Z,25.41
2024-02-07T11:15:30.818Z,25.39
2024-02-07T11:16:30.860Z,25.33
2024-02-07T11:17:30.892Z,25.29
2024-02-07T11:18:30.911Z,25.32
2024-02-07T11:19:30.980Z,25.25
2024-02-07T11:20:30.936Z,25.15
2024-02-07T11:21:30.944Z,25.18
2024-02-07T11:22:31.585Z,25.15
2024-02-07T11:23:31.037Z,25.17
2024-02-07T11:24:31.014Z,25.13
2024-02-07T11:25:31.030Z,25.13
2024-02-07T11:26:31.048Z,25.10
2024-02-07T11:27:31.096Z,25.10
2024-02-07T11:28:31.159Z,25.11
2024-02-07T11:29:31.182Z,25.04
2024-02-07T11:30:31.154Z,25.05
2024-02-07T11:31:31.264Z,25.03
2024-02-07T11:32:31.256Z,25.01
2024-02-07T11:33:31.304Z,25.01
2024-02-07T11:34:31.424Z,24.96
2024-02-07T11:35:31.421Z,24.97
2024-02-07T11:36:31.371Z,24.89
2024-02-07T11:37:31.408Z,24.89
2024-02-07T11:38:31.570Z,24.93
2024-02-07T11:39:31.405Z,24.83
2024-02-07T11:40:31.497Z,24.85
2024-02-07T11:41:31.496Z,24.79
2024-02-07T11:42:31.494Z,24.80
2024-02-07T11:43:31.646Z,24.77
2024-02-07T11:44:31.578Z,24.78
2024-02-07T11:45:31.580Z,24.74
2024-02-07T11:46:31.662Z,24.71
2024-02-07T11:47:31.975Z,24.70
2024-02-07T11:48:31.806Z,24.72
2024-02-07T11:49:31.794Z,24.70
2024-02-07T11:50:31.736Z,24.68
2024-02-07T11:51:31.766Z,24.68
2024-02-07T11:52:31.818Z,24.67
2024-02-07T11:53:31.861Z,24.68
2024-02-07T11:54:32.517Z,24.65
2024-02-07T11:55:31.940Z,24.63
2024-02-07T11:56:31.915Z,24.64
2024-02-07T11:57:31.905Z,24.61
2024-02-07T11:58:32.088Z,24.66
2024-02-07T11:59:31.979Z,24.60
2024-02-07T12:00:32.041Z,24.60
2024-02-07T12:01:32.166Z,24.50
2024-02-07T12:02:32.079Z,24.51
2024-02-07T12:03:32.074Z,24.51
2024-02-07T12:04:32.206Z,24.46
2024-02-07T12:05:32.212Z,24.43
2024-02-07T12:06:32.231Z,24.47
2024-02-07T12:07:32.414Z,24.50
2024-02-07T12:08:32.211Z,24.38
2024-02-07T12:09:32.221Z,24.40
2024-02-07T12:10:32.286Z,24.40
2024-02-07T12:11:32.300Z,24.33
2024-02-07T12:12:32.322Z,24.30
2024-02-07T12:13:32.416Z,24.40
2024-02-07T12:14:32.401Z,24.35
2024-02-07T12:15:32.409Z,24.35
2024-02-07T12:16:32.459Z,24.36
2024-02-07T12:17:32.458Z,24.37
2024-02-07T12:18:32.644Z,24.30
2024-02-07T12:19:32.610Z,24.29
2024-02-07T12:20:32.611Z,24.23
2024-02-07T12:21:32.572Z,24.26
2024-02-07T12:22:32.616Z,24.26
2024-02-07T12:23:33.111Z,24.22
2024-02-07T12:24:32.709Z,24.21
2024-02-07T12:25:32.841Z,24.21
2024-02-07T12:26:32.693Z,24.19
2024-02-07T12:27:32.727Z,24.19
2024-02-07T12:28:32.900Z,24.15
2024-02-07T12:29:32.798Z,24.18
2024-02-07T12:30:32.812Z,24.21
2024-02-07T12:31:32.883Z,24.12
2024-02-07T12:32:34.081Z,24.14
2024-02-07T12:33:32.976Z,24.15
2024-02-07T12:34:33.110Z,24.12
2024-02-07T12:35:33.006Z,24.11
2024-02-07T12:36:32.910Z,24.16
2024-02-07T12:37:32.946Z,24.15
2024-02-07T12:38:32.950Z,24.13
2024-02-07T12:39:32.883Z,24.15
2024-02-07T12:40:33.743Z,24.15
2024-02-07T12:41:32.891Z,24.11
2024-02-07T12:42:32.918Z,24.08
2024-02-07T12:43:32.916Z,24.11
2024-02-07T12:44:32.914Z,24.07
2024-02-07T12:45:32.942Z,24.06
2024-02-07T12:46:32.995Z,24.02
2024-02-07T12:47:32.965Z,24.04
2024-02-07T12:48:33.048Z,24.02
2024-02-07T12:49:33.061Z,24.07
2024-02-07T12:50:33.004Z,23.95
2024-02-07T12:51:32.900Z,24.04
2024-02-07T12:52:32.963Z,23.94